KCDI

Cambridge Municipal Airport

Cambridge, Ohio, USA
METAR KCDI 222035Z AUTO 21007KT 10SM CLR 16/00 A3007 RMK AO2 T01590000
Observed Flight Rules
Oct-22 @ 20:35 UTC (33 minutes ago) Visual Flight Rules
Wind Visibility Clouds
210° at 7 knots 10 miles
  • Clear skies
Temperatures Readings
Current 16°C / 61°F
Dewpoint 0°C / 32°F
Humidity 34%
Altimeter 30.07" Hg
Pressure 1018 hPa
Elevation 244
METAR KCDI 222035Z AUTO 21007KT 10SM CLR 16/00 A3007 RMK AO2 T01590000
Observed Flight Rules
Oct-22 @ 20:35 UTC
(33 minutes ago)
VFR
Wind Visibility
210° at 7 knots 10 miles
Clouds
  • Clear skies
Temperature Dewpoint
16°C / 61°F 0°C / 32°F
Humidity Altimeter Pressure
34% 30.07" Hg 1018 hPa